sensor_id;sensor_type;location;lat;lon;timestamp;temperature;humidity
3402;DHT22;1714;49.756;8.610;2023-06-14T00:01:28;19.30;1.00
3402;DHT22;1714;49.756;8.610;2023-06-14T00:12:03;19.30;1.00
3402;DHT22;1714;49.756;8.610;2023-06-14T00:22:40;19.30;1.00
3402;DHT22;1714;49.756;8.610;2023-06-14T00:33:14;19.20;1.00
3402;DHT22;1714;49.756;8.610;2023-06-14T00:43:51;19.30;1.00
3402;DHT22;1714;49.756;8.610;2023-06-14T00:54:26;19.10;1.00
3402;DHT22;1714;49.756;8.610;2023-06-14T01:05:01;19.10;1.00
3402;DHT22;1714;49.756;8.610;2023-06-14T01:15:36;19.10;1.00
3402;DHT22;1714;49.756;8.610;2023-06-14T01:26:11;18.90;1.00
3402;DHT22;1714;49.756;8.610;2023-06-14T01:36:47;18.80;1.00
3402;DHT22;1714;49.756;8.610;2023-06-14T01:47:24;18.80;1.00
3402;DHT22;1714;49.756;8.610;2023-06-14T01:58:00;18.70;1.00
3402;DHT22;1714;49.756;8.610;2023-06-14T02:08:34;18.60;1.00
3402;DHT22;1714;49.756;8.610;2023-06-14T02:19:09;18.30;1.00
3402;DHT22;1714;49.756;8.610;2023-06-14T02:29:44;17.80;1.00
3402;DHT22;1714;49.756;8.610;2023-06-14T02:40:19;17.90;1.00
3402;DHT22;1714;49.756;8.610;2023-06-14T02:50:54;17.70;1.00
3402;DHT22;1714;49.756;8.610;2023-06-14T03:01:31;17.40;1.00
3402;DHT22;1714;49.756;8.610;2023-06-14T03:12:13;17.20;1.00
3402;DHT22;1714;49.756;8.610;2023-06-14T03:22:48;17.30;1.00
3402;DHT22;1714;49.756;8.610;2023-06-14T03:33:23;17.10;1.00
3402;DHT22;1714;49.756;8.610;2023-06-14T03:44:00;17.10;1.00
3402;DHT22;1714;49.756;8.610;2023-06-14T03:54:37;17.20;1.00
3402;DHT22;1714;49.756;8.610;2023-06-14T04:05:15;17.30;1.00
3402;DHT22;1714;49.756;8.610;2023-06-14T04:15:55;17.30;1.00
3402;DHT22;1714;49.756;8.610;2023-06-14T04:26:37;17.40;1.00
3402;DHT22;1714;49.756;8.610;2023-06-14T04:37:14;17.40;1.00
3402;DHT22;1714;49.756;8.610;2023-06-14T04:47:49;17.40;1.00
3402;DHT22;1714;49.756;8.610;2023-06-14T04:58:27;17.20;1.00
3402;DHT22;1714;49.756;8.610;2023-06-14T05:09:03;17.50;1.00
3402;DHT22;1714;49.756;8.610;2023-06-14T05:19:38;17.60;1.00
3402;DHT22;1714;49.756;8.610;2023-06-14T05:30:14;17.60;1.00
3402;DHT22;1714;49.756;8.610;2023-06-14T05:40:49;17.80;1.00
3402;DHT22;1714;49.756;8.610;2023-06-14T05:51:24;17.90;1.00
3402;DHT22;1714;49.756;8.610;2023-06-14T06:01:59;18.00;1.00
3402;DHT22;1714;49.756;8.610;2023-06-14T06:12:34;18.20;1.00
3402;DHT22;1714;49.756;8.610;2023-06-14T06:23:09;18.40;1.00
3402;DHT22;1714;49.756;8.610;2023-06-14T06:33:44;18.40;1.00
3402;DHT22;1714;49.756;8.610;2023-06-14T06:44:18;18.60;1.00
3402;DHT22;1714;49.756;8.610;2023-06-14T06:54:56;18.80;1.00
3402;DHT22;1714;49.756;8.610;2023-06-14T07:05:31;18.90;1.00
3402;DHT22;1714;49.756;8.610;2023-06-14T07:16:06;19.10;1.00
3402;DHT22;1714;49.756;8.610;2023-06-14T07:26:41;19.30;1.00
3402;DHT22;1714;49.756;8.610;2023-06-14T07:37:16;19.60;1.00
3402;DHT22;1714;49.756;8.610;2023-06-14T07:47:50;21.00;1.00
3402;DHT22;1714;49.756;8.610;2023-06-14T07:58:26;22.30;1.00
3402;DHT22;1714;49.756;8.610;2023-06-14T08:09:01;23.30;1.00
3402;DHT22;1714;49.756;8.610;2023-06-14T08:19:35;24.00;1.00
3402;DHT22;1714;49.756;8.610;2023-06-14T08:30:13;24.90;1.00
3402;DHT22;1714;49.756;8.610;2023-06-14T08:40:50;25.10;1.00
3402;DHT22;1714;49.756;8.610;2023-06-14T08:51:25;25.50;1.00
3402;DHT22;1714;49.756;8.610;2023-06-14T09:02:01;26.10;1.00
3402;DHT22;1714;49.756;8.610;2023-06-14T09:12:46;26.20;1.00
3402;DHT22;1714;49.756;8.610;2023-06-14T09:23:21;26.70;1.00
3402;DHT22;1714;49.756;8.610;2023-06-14T09:33:56;27.00;1.00
3402;DHT22;1714;49.756;8.610;2023-06-14T09:44:31;27.20;1.00
3402;DHT22;1714;49.756;8.610;2023-06-14T09:55:13;27.60;1.00
3402;DHT22;1714;49.756;8.610;2023-06-14T10:05:50;27.70;1.00
3402;DHT22;1714;49.756;8.610;2023-06-14T10:17:12;28.40;1.00
3402;DHT22;1714;49.756;8.610;2023-06-14T10:27:20;28.80;1.00
3402;DHT22;1714;49.756;8.610;2023-06-14T10:38:13;29.20;1.00
3402;DHT22;1714;49.756;8.610;2023-06-14T10:48:48;28.20;1.00
3402;DHT22;1714;49.756;8.610;2023-06-14T10:59:23;27.50;1.00
3402;DHT22;1714;49.756;8.610;2023-06-14T11:20:57;30.20;1.00
3402;DHT22;1714;49.756;8.610;2023-06-14T11:31:32;30.30;1.00
3402;DHT22;1714;49.756;8.610;2023-06-14T11:42:07;30.30;1.00
3402;DHT22;1714;49.756;8.610;2023-06-14T11:52:43;29.20;1.00
3402;DHT22;1714;49.756;8.610;2023-06-14T12:03:18;30.00;1.00
3402;DHT22;1714;49.756;8.610;2023-06-14T12:13:57;29.90;1.00
3402;DHT22;1714;49.756;8.610;2023-06-14T12:24:32;30.60;1.00
3402;DHT22;1714;49.756;8.610;2023-06-14T12:35:07;31.10;1.00
3402;DHT22;1714;49.756;8.610;2023-06-14T12:45:42;30.40;1.00
3402;DHT22;1714;49.756;8.610;2023-06-14T12:56:17;30.10;1.00
3402;DHT22;1714;49.756;8.610;2023-06-14T13:06:52;28.50;1.00
3402;DHT22;1714;49.756;8.610;2023-06-14T13:17:27;30.50;1.00
3402;DHT22;1714;49.756;8.610;2023-06-14T13:28:07;29.20;1.00
3402;DHT22;1714;49.756;8.610;2023-06-14T13:38:55;29.80;1.00
3402;DHT22;1714;49.756;8.610;2023-06-14T13:49:30;29.70;1.00
3402;DHT22;1714;49.756;8.610;2023-06-14T14:00:08;30.60;1.00
3402;DHT22;1714;49.756;8.610;2023-06-14T14:10:47;29.30;1.00
3402;DHT22;1714;49.756;8.610;2023-06-14T14:21:22;28.40;1.00
3402;DHT22;1714;49.756;8.610;2023-06-14T14:31:57;29.50;1.00
3402;DHT22;1714;49.756;8.610;2023-06-14T14:42:32;30.50;1.00
3402;DHT22;1714;49.756;8.610;2023-06-14T14:53:07;31.20;1.00
3402;DHT22;1714;49.756;8.610;2023-06-14T15:03:42;30.30;1.00
3402;DHT22;1714;49.756;8.610;2023-06-14T15:14:23;30.20;1.00
3402;DHT22;1714;49.756;8.610;2023-06-14T15:24:57;28.00;1.00
3402;DHT22;1714;49.756;8.610;2023-06-14T15:35:32;28.50;1.00
3402;DHT22;1714;49.756;8.610;2023-06-14T15:46:07;29.20;1.00
3402;DHT22;1714;49.756;8.610;2023-06-14T15:56:42;28.80;1.00
3402;DHT22;1714;49.756;8.610;2023-06-14T16:07:16;28.70;1.00
3402;DHT22;1714;49.756;8.610;2023-06-14T16:17:51;28.20;1.00
3402;DHT22;1714;49.756;8.610;2023-06-14T16:28:30;27.90;1.00
3402;DHT22;1714;49.756;8.610;2023-06-14T16:39:05;27.10;1.00
3402;DHT22;1714;49.756;8.610;2023-06-14T16:49:40;27.00;1.00
3402;DHT22;1714;49.756;8.610;2023-06-14T17:00:15;26.80;1.00
3402;DHT22;1714;49.756;8.610;2023-06-14T17:10:52;26.50;1.00
3402;DHT22;1714;49.756;8.610;2023-06-14T17:21:27;26.10;1.00
3402;DHT22;1714;49.756;8.610;2023-06-14T17:32:02;25.60;1.00
3402;DHT22;1714;49.756;8.610;2023-06-14T17:42:36;25.10;1.00
3402;DHT22;1714;49.756;8.610;2023-06-14T17:53:11;24.80;1.00
3402;DHT22;1714;49.756;8.610;2023-06-14T18:03:46;24.60;1.00
3402;DHT22;1714;49.756;8.610;2023-06-14T18:14:22;24.20;1.00
3402;DHT22;1714;49.756;8.610;2023-06-14T18:24:56;24.10;1.00
3402;DHT22;1714;49.756;8.610;2023-06-14T18:35:32;23.80;1.00
3402;DHT22;1714;49.756;8.610;2023-06-14T18:46:09;23.50;1.00
3402;DHT22;1714;49.756;8.610;2023-06-14T18:57:01;23.30;1.00
3402;DHT22;1714;49.756;8.610;2023-06-14T19:07:36;23.00;1.00
3402;DHT22;1714;49.756;8.610;2023-06-14T19:18:12;22.70;1.00
3402;DHT22;1714;49.756;8.610;2023-06-14T19:28:47;22.40;1.00
3402;DHT22;1714;49.756;8.610;2023-06-14T19:39:22;22.20;1.00
3402;DHT22;1714;49.756;8.610;2023-06-14T19:49:58;21.70;1.00
3402;DHT22;1714;49.756;8.610;2023-06-14T20:00:33;21.50;1.00
3402;DHT22;1714;49.756;8.610;2023-06-14T20:11:08;21.30;1.00
3402;DHT22;1714;49.756;8.610;2023-06-14T20:21:43;21.20;1.00
3402;DHT22;1714;49.756;8.610;2023-06-14T20:32:18;21.10;1.00
3402;DHT22;1714;49.756;8.610;2023-06-14T20:42:53;20.90;1.00
3402;DHT22;1714;49.756;8.610;2023-06-14T20:53:31;20.80;1.00
3402;DHT22;1714;49.756;8.610;2023-06-14T21:04:06;20.70;1.00
3402;DHT22;1714;49.756;8.610;2023-06-14T21:14:41;20.60;1.00
3402;DHT22;1714;49.756;8.610;2023-06-14T21:25:16;20.50;1.00
3402;DHT22;1714;49.756;8.610;2023-06-14T21:35:50;20.50;1.00
3402;DHT22;1714;49.756;8.610;2023-06-14T21:46:29;20.30;1.00
3402;DHT22;1714;49.756;8.610;2023-06-14T21:57:06;20.30;1.00
3402;DHT22;1714;49.756;8.610;2023-06-14T22:07:42;20.10;1.00
3402;DHT22;1714;49.756;8.610;2023-06-14T22:18:17;19.90;1.00
3402;DHT22;1714;49.756;8.610;2023-06-14T22:28:53;19.70;1.00
3402;DHT22;1714;49.756;8.610;2023-06-14T22:39:27;19.60;1.00
3402;DHT22;1714;49.756;8.610;2023-06-14T22:50:02;19.40;1.00
3402;DHT22;1714;49.756;8.610;2023-06-14T23:00:43;19.20;1.00
3402;DHT22;1714;49.756;8.610;2023-06-14T23:11:21;19.10;1.00
3402;DHT22;1714;49.756;8.610;2023-06-14T23:21:56;18.90;1.00
3402;DHT22;1714;49.756;8.610;2023-06-14T23:32:33;18.70;1.00
3402;DHT22;1714;49.756;8.610;2023-06-14T23:43:09;18.60;1.00
3402;DHT22;1714;49.756;8.610;2023-06-14T23:53:44;18.50;1.00
